• Join FlightAware (Why Join?)
  • Login
  • US Flag 
03:34AM EDT


 

Airport Tracker/Info


-or-


 

Live Flight TrackerFlight Track Log ✈ UAL4567 ✈ 02-May-2013 ✈ KEWR - KMCI

Flight Track Log - Related Links

Times and Time Zones

All times are in EDT time to prevent confusion due to time zone crossing. See the UAL4567 flight status page for this flight to view local times or setup timezone preferences in your user account.

Time Position Orientation Groundspeed Altitude Reporting Facility
EDT Latitude Longitude Course Direction KTS MPH feet Rate Location/Type
01:12PM 40.6500 -74.1833 270° West 166 191 1,400  Level New York TRACON
01:13PM 40.6167 -74.2333 229° Southwest 238 274 2,800 1,740 Climbing New York TRACON
01:14PM 40.6500 -74.3167 298° West 280 322 4,900 2,400 Climbing New York TRACON
01:15PM 40.7515 -74.7190 276° West  Level FlightAware Approximate
01:15PM 40.6833 -74.4167 294° West 294 338 7,700  Level New York TRACON
01:16PM 40.7625 -74.8621 276° West  Level FlightAware Approximate
01:16PM 40.7167 -74.5167 294° West 293 337 10,300  Level New York TRACON
01:17PM 40.7833 -75.0010 270° West  Level FlightAware Approximate
01:17PM 40.7564 -74.7050 286° West 344 396 11,600  Level New York Center
01:18PM 40.7708 -74.8372 278° West 370 426 13,500 1,380 Climbing New York Center
01:19PM 40.7850 -74.9642 278° West 381 438 14,400 900 Climbing New York Center
01:20PM 40.7986 -75.1103 277° West 393 452 15,400 1,260 Climbing New York Center
01:21PM 40.7553 -75.2611 249° West 403 464 17,000 1,200 Climbing New York Center
01:22PM 40.7106 -75.4006 247° West 403 464 17,800 1,080 Climbing New York Center
01:23PM 40.6653 -75.5369 246° West 410 472 19,200 1,380 Climbing New York Center
01:24PM 40.6225 -75.6706 247° West 410 472 20,600 1,320 Climbing New York Center
01:25PM 40.5792 -75.8069 247° West 410 472 22,000 1,440 Climbing New York Center
01:26PM 40.5342 -75.9319 245° Southwest 410 472 23,500 1,560 Climbing New York Center
01:27PM 40.4839 -76.0783 246° West 410 472 25,100 1,320 Climbing New York Center
01:28PM 40.4500 -76.1850 247° West 410 472 26,200 1,260 Climbing New York Center
01:30PM 40.3944 -76.3469 246° West 405 466 27,700 1,020 Climbing New York Center
01:30PM 40.3533 -76.4661 246° West 410 472 28,300 720 Climbing New York Center
01:31PM 40.3103 -76.5822 244° Southwest 402 463 29,200 840 Climbing New York Center
01:32PM 40.2506 -76.7325 243° Southwest 412 474 30,100 900 Climbing New York Center
01:33PM 40.1983 -76.8583 242° Southwest 412 474 31,100 960 Climbing New York Center
01:34PM 40.1364 -77.0078 242° Southwest 423 487 32,100 900 Climbing New York Center
01:35PM 40.1008 -77.1267 249° West 416 479 33,000 900 Climbing New York Center
01:36PM 40.1008 -77.2789 270° West 408 470 33,900 840 Climbing New York Center
01:37PM 40.1008 -77.4281 270° West 413 475 34,800 660 Climbing New York Center
01:39PM 40.1006 -77.7411 270° West 411 473 36,000 360 Climbing Cleveland Center
01:40PM 40.0981 -77.8933 269° West 411 473 36,000  Level Cleveland Center
01:41PM 40.0911 -78.0539 267° West 431 496 36,000  Level Cleveland Center
01:42PM 40.0903 -78.2111 270° West 437 503 36,000  Level Cleveland Center
01:43PM 40.0875 -78.3714 269° West 444 511 36,000  Level Cleveland Center
01:44PM 40.0842 -78.5261 268° West 444 511 36,000  Level Cleveland Center
01:45PM 40.0806 -78.6836 268° West 444 511 36,000  Level Cleveland Center
01:46PM 40.0767 -78.8411 268° West 444 511 36,000  Level Cleveland Center
01:47PM 40.0728 -78.9986 268° West 444 511 36,000  Level Cleveland Center
01:48PM 40.0708 -79.1533 269° West 444 511 36,000  Level Cleveland Center
01:49PM 40.0661 -79.2808 267° West 444 511 36,000  Level Cleveland Center
01:50PM 40.0658 -79.4544 270° West 444 511 36,000  Level Cleveland Center
01:51PM 40.0611 -79.6147 268° West 444 511 36,000  Level Cleveland Center
01:52PM 40.0558 -79.7694 267° West 439 505 36,000  Level Cleveland Center
01:53PM 40.0486 -79.9267 267° West 439 505 36,000  Level Cleveland Center
01:54PM 40.0453 -80.0814 268° West 439 505 36,000  Level Cleveland Center
01:55PM 40.0436 -80.2414 269° West 439 505 36,000  Level Cleveland Center
01:56PM 40.0442 -80.3986 270° West 439 505 36,000  Level Cleveland Center
01:57PM 40.0483 -80.5586 272° West 439 505 36,000  Level Cleveland Center
01:58PM 40.0503 -80.7294 271° West 439 505 36,000  Level Cleveland Center
01:59PM 40.0522 -80.8869 271° West 439 505 36,000  Level Cleveland Center
02:02PM 40.0539 -81.2317 270° West 434 499 36,000  Level Indianapolis Center
02:03PM 40.0558 -81.3922 271° West 437 503 36,000  Level Indianapolis Center
02:04PM 40.0575 -81.5775 271° West 433 498 36,000  Level Indianapolis Center
02:05PM 40.0581 -81.7358 270° West 433 498 36,000  Level Indianapolis Center
02:06PM 40.0592 -81.8839 271° West 433 498 36,000  Level Indianapolis Center
02:07PM 40.0600 -82.0442 270° West 437 503 36,000  Level Indianapolis Center
02:08PM 40.0614 -82.2033 271° West 436 502 36,000  Level Indianapolis Center
02:09PM 40.0619 -82.3897 270° West 437 503 36,000  Level Indianapolis Center
02:10PM 40.0611 -82.5486 270° West 436 502 36,000  Level Indianapolis Center
02:11PM 40.0611 -82.7089 270° West 438 504 36,000  Level Indianapolis Center
02:12PM 40.0600 -82.8689 270° West 439 505 36,000  Level Indianapolis Center
02:13PM 40.0600 -83.0297 270° West 441 507 36,000  Level Indianapolis Center
02:14PM 40.0600 -83.1903 270° West 441 507 36,000  Level Indianapolis Center
02:15PM 40.0592 -83.3786 270° West 446 513 36,000  Level Indianapolis Center
02:16PM 40.0575 -83.5394 269° West 446 513 36,000  Level Indianapolis Center
02:17PM 40.0558 -83.7006 269° West 446 513 36,000  Level Indianapolis Center
02:18PM 40.0531 -83.8617 269° West 445 512 36,000  Level Indianapolis Center
02:19PM 40.0517 -84.0228 269° West 443 510 36,000  Level Indianapolis Center
02:20PM 40.0478 -84.2106 269° West 441 507 36,000  Level Indianapolis Center
02:21PM 40.0456 -84.3725 269° West 442 509 36,000  Level Indianapolis Center
02:22PM 40.0433 -84.5317 269° West 439 505 36,000  Level Indianapolis Center
02:24PM 40.0403 -84.6914 269° West 437 503 36,000  Level Indianapolis Center
02:25PM 40.0369 -84.8519 268° West 437 503 36,000  Level Indianapolis Center
02:26PM 40.0333 -85.0272 269° West 438 504 36,000  Level Indianapolis Center
02:27PM 40.0297 -85.1850 268° West 437 503 36,000  Level Indianapolis Center
02:28PM 40.0264 -85.3453 268° West 442 509 36,000  Level Indianapolis Center
02:29PM 40.0214 -85.5025 268° West 437 503 36,000  Level Indianapolis Center
02:30PM 40.0175 -85.6614 268° West 440 506 36,000  Level Indianapolis Center
02:30PM 40.0147 -85.7883 268° West 442 509 36,000  Level Indianapolis Center
02:31PM 40.0100 -85.9469 268° West 442 509 36,000  Level Indianapolis Center
02:32PM 40.0050 -86.1058 268° West 443 510 36,000  Level Indianapolis Center
02:33PM 40.0011 -86.2622 268° West 445 512 36,000  Level Chicago Center
02:34PM 39.9953 -86.4200 267° West 445 512 36,000  Level Chicago Center
02:35PM 39.9903 -86.5781 268° West 443 510 36,000  Level Chicago Center
02:36PM 39.9842 -86.7367 267° West 444 511 36,000  Level Chicago Center
02:37PM 39.9775 -86.9275 267° West 443 510 36,000  Level Chicago Center
02:39PM 39.9708 -87.0867 267° West 443 510 36,000  Level Chicago Center
02:40PM 39.9639 -87.2458 267° West 443 510 36,000  Level Chicago Center
02:41PM 39.9586 -87.4042 268° West 440 506 36,000  Level Chicago Center
02:42PM 39.9175 -87.5803 253° West 434 499 36,000  Level Indianapolis Center
02:43PM 39.8514 -87.7044 235° Southwest 421 484 36,000  Level Indianapolis Center
02:44PM 39.7833 -87.8322 235° Southwest 427 491 36,000  Level Indianapolis Center
02:45PM 39.7172 -87.9569 235° Southwest 425 489 36,000  Level Indianapolis Center
02:46PM 39.6364 -88.1078 235° Southwest 426 490 36,000  Level Indianapolis Center
02:47PM 39.5944 -88.2111 242° Southwest 442 509 36,000  Level Kansas City Center
02:48PM 39.6022 -88.4006 273° West 442 509 36,000  Level Kansas City Center
02:49PM 39.6186 -88.5583 278° West 442 509 36,000  Level Kansas City Center
02:50PM 39.6331 -88.7106 277° West 445 512 36,000  Level Kansas City Center
02:51PM 39.6464 -88.8683 276° West 441 507 36,000  Level Kansas City Center
02:52PM 39.6617 -89.0244 277° West 438 504 36,000  Level Kansas City Center
02:53PM 39.6756 -89.1808 277° West 437 503 36,000  Level Kansas City Center
02:54PM 39.6917 -89.3497 277° West 434 499 36,000  Level Kansas City Center
02:55PM 39.7064 -89.5217 276° West 432 497 36,000  Level Kansas City Center
02:56PM 39.7200 -89.6767 277° West 432 497 36,000  Level Kansas City Center
02:57PM 39.7333 -89.8319 276° West 431 496 36,000  Level Kansas City Center
02:58PM 39.7339 -89.9878 270° West 432 497 36,000  Level Kansas City Center
02:59PM 39.7322 -90.1411 269° West 428 493 36,000  Level Kansas City Center
03:00PM 39.7306 -90.3019 269° West 428 493 36,000  Level Kansas City Center
03:01PM 39.7283 -90.4542 269° West 426 490 36,000  Level Kansas City Center
03:02PM 39.7264 -90.6061 269° West 425 489 36,000  Level Kansas City Center
03:03PM 39.7236 -90.7881 269° West 423 487 36,000  Level Kansas City Center
03:04PM 39.7208 -90.9411 269° West 425 489 36,000  Level Kansas City Center
03:05PM 39.7192 -91.0944 269° West 427 491 36,000  Level Kansas City Center
03:06PM 39.7153 -91.2489 268° West 429 494 36,000  Level Kansas City Center
03:07PM 39.7106 -91.4158 268° West 430 495 36,000  Level Kansas City Center
03:08PM 39.7064 -91.5700 268° West 429 494 36,000  Level Kansas City Center
03:09PM 39.7036 -91.7242 269° West 429 494 36,000  Level Kansas City Center
03:10PM 39.6994 -91.8803 268° West 433 498 36,000  Level Kansas City Center
03:11PM 39.6956 -92.0339 268° West 430 495 36,000  Level Kansas City Center
03:13PM 39.6906 -92.2183 268° West 429 494 36,000  Level Kansas City Center
03:14PM 39.6864 -92.3722 268° West 427 491 36,000 -540 Level Kansas City Center
03:15PM 39.6811 -92.5261 267° West 427 491 35,000 -1,260 Descending Kansas City Center
03:16PM 39.6764 -92.6772 268° West 424 488 33,500 -1,440 Descending Kansas City Center
03:17PM 39.6708 -92.8322 267° West 426 490 32,100 -1,500 Descending Kansas City Center
03:18PM 39.6647 -92.9900 267° West 427 491 30,500 -1,800 Descending Kansas City Center
03:19PM 39.6583 -93.1714 267° West 429 494 28,500 -1,980 Descending Kansas City Center
03:20PM 39.6522 -93.3311 267° West 440 506 26,500 -2,160 Descending Kansas City Center
03:21PM 39.6461 -93.4883 267° West 440 506 24,100 -2,280 Descending Kansas City Center
03:22PM 39.6403 -93.6386 267° West 423 487 21,800 -2,160 Descending Kansas City Center
03:23PM 39.6336 -93.7925 267° West 410 472 19,700 -2,100 Descending Kansas City Center
03:24PM 39.5992 -93.9369 253° West 375 432 17,600 -2,160 Descending Kansas City Center
03:25PM 39.5458 -94.0419 237° Southwest 363 418 15,300 -2,340 Descending Kansas City Center
03:26PM 39.4856 -94.1614 237° Southwest 353 406 12,800 -1,620 Descending Kansas City Center
03:27PM 39.4381 -94.2567 237° Southwest 334 384 12,000 -420 Descending Kansas City Center
03:28PM 39.3900 -94.3511 237° Southwest 329 379 12,000  Level Kansas City Center
03:29PM 39.3364 -94.4561 237° Southwest 309 356 12,000 -420 Level Kansas City Center
03:30PM 39.3003 -94.5267 237° Southwest 245 282 11,200 -1,320 Descending Kansas City Center
03:31PM 39.2578 -94.5889 229° Southwest 218 251 9,300 -2,100 Descending Kansas City Center
03:32PM 39.2033 -94.6156 201° Southwest 222 255 7,000 -2,100 Descending Kansas City Center
03:33PM 39.1308 -94.6575 204° Southwest 257 296 5,000 -1,500 Descending Kansas City Center
03:34PM 39.1039 -94.7228 242° Southwest 236 272 4,000 -720 Descending Kansas City Center
03:35PM 39.1439 -94.7500 332° Northwest 179 206 3,600 -420 Descending Kansas City Center